createdAt,value
2023-01-24T05:04:22.796Z,100346.47
2023-01-24T05:08:34.357Z,100367.16
2023-01-24T05:12:45.926Z,100359.47
2023-01-24T05:17:06.579Z,100356.00
2023-01-24T05:21:20.236Z,100364.47
2023-01-24T05:25:31.996Z,100372.97
2023-01-24T05:29:43.768Z,100389.44
2023-01-24T05:33:55.327Z,100382.59
2023-01-24T05:38:06.903Z,100388.66
2023-01-24T05:42:20.672Z,100394.84
2023-01-24T05:46:35.304Z,100395.97
2023-01-24T05:50:59.925Z,100399.31
2023-01-24T05:55:11.629Z,100405.91
2023-01-24T05:59:28.747Z,100417.09
2023-01-24T06:03:42.345Z,100422.31
2023-01-24T06:07:54.610Z,100418.50
2023-01-24T06:12:06.178Z,100413.63
2023-01-24T06:16:20.924Z,100421.53
2023-01-24T06:20:33.080Z,100428.69
2023-01-24T06:24:44.911Z,100433.75
2023-01-24T06:29:11.534Z,100433.00
2023-01-24T06:33:53.518Z,100449.56
2023-01-24T06:38:05.296Z,100441.69
2023-01-24T06:42:21.539Z,100456.06
2023-01-24T06:46:32.991Z,100459.56
2023-01-24T06:50:44.510Z,100460.03
2023-01-24T06:54:56.039Z,100457.56
2023-01-24T06:59:07.469Z,100458.72
2023-01-24T07:03:20.063Z,100457.81
2023-01-24T07:07:32.438Z,100461.88
2023-01-24T07:11:43.899Z,100466.09
2023-01-24T07:15:55.388Z,100467.97
2023-01-24T07:20:07.763Z,100471.38
2023-01-24T07:24:25.261Z,100458.63
2023-01-24T07:28:36.704Z,100462.69
2023-01-24T07:32:48.141Z,100474.66
2023-01-24T07:36:59.630Z,100482.63
2023-01-24T07:41:11.429Z,100491.00
2023-01-24T07:45:23.240Z,100481.22
2023-01-24T07:49:34.808Z,100492.34
2023-01-24T07:53:48.176Z,100488.22
2023-01-24T07:58:01.629Z,100490.66
2023-01-24T08:02:13.235Z,100499.28
2023-01-24T08:06:25.399Z,100501.97
2023-01-24T08:10:37.050Z,100501.97
2023-01-24T08:14:48.587Z,100502.63
2023-01-24T08:19:00.859Z,100507.66
2023-01-24T08:23:12.305Z,100511.91
2023-01-24T08:27:23.860Z,100521.53
2023-01-24T08:31:35.430Z,100520.56
2023-01-24T08:35:47.420Z,100531.56
2023-01-24T08:39:58.863Z,100529.84
2023-01-24T08:44:10.880Z,100524.50
2023-01-24T08:48:22.339Z,100525.66
2023-01-24T08:52:33.755Z,100525.84
2023-01-24T08:56:45.257Z,100525.47
2023-01-24T09:00:56.679Z,100531.13
2023-01-24T09:05:09.494Z,100547.66
2023-01-24T09:09:21.016Z,100537.03
2023-01-24T09:13:32.633Z,100535.56
2023-01-24T09:17:45.223Z,100537.50
2023-01-24T09:21:57.811Z,100545.59
2023-01-24T09:26:09.420Z,100549.34
2023-01-24T09:30:22.672Z,100534.47
2023-01-24T09:34:34.164Z,100542.25
2023-01-24T09:38:56.431Z,100556.75
2023-01-24T09:43:30.456Z,100549.03
2023-01-24T09:47:50.696Z,100546.31
2023-01-24T09:52:07.357Z,100551.03
2023-01-24T09:56:31.804Z,100546.88
2023-01-24T10:00:43.482Z,100543.25
2023-01-24T10:04:55.043Z,100558.59
2023-01-24T10:09:18.843Z,100554.41
2023-01-24T10:13:56.432Z,100572.75
2023-01-24T10:18:38.438Z,100564.00
2023-01-24T10:23:08.715Z,100563.16
2023-01-24T10:27:37.635Z,100567.47
2023-01-24T10:32:18.315Z,100567.97
2023-01-24T10:36:44.250Z,100554.47
2023-01-24T10:41:20.314Z,100554.91
2023-01-24T10:45:46.731Z,100558.22
2023-01-24T10:50:05.285Z,100557.28
2023-01-24T10:54:23.451Z,100554.97
2023-01-24T10:58:42.977Z,100557.22
2023-01-24T11:03:00.310Z,100554.44
2023-01-24T11:07:29.149Z,100558.69
2023-01-24T11:11:50.781Z,100552.41
2023-01-24T11:16:22.284Z,100551.53
2023-01-24T11:20:35.973Z,100554.09
2023-01-24T11:24:47.766Z,100550.28
2023-01-24T11:29:15.628Z,100554.66
2023-01-24T11:33:30.103Z,100561.47
2023-01-24T11:38:12.596Z,100551.31
2023-01-24T11:42:35.808Z,100548.72
2023-01-24T11:47:11.019Z,100545.97
2023-01-24T11:51:31.707Z,100548.41
2023-01-24T11:56:13.834Z,100534.19
2023-01-24T12:00:37.506Z,100537.59
2023-01-24T12:05:02.176Z,100532.38
2023-01-24T12:09:22.008Z,100523.59
2023-01-24T12:13:45.442Z,100513.06
2023-01-24T12:17:59.815Z,100511.00
2023-01-24T12:22:17.680Z,100517.81
2023-01-24T12:26:37.670Z,100513.78
2023-01-24T12:30:54.555Z,100503.91
2023-01-24T12:35:32.719Z,100494.78
2023-01-24T12:39:59.160Z,100497.06
2023-01-24T12:44:27.911Z,100497.34
2023-01-24T12:48:55.366Z,100495.00
2023-01-24T12:53:22.297Z,100494.84
2023-01-24T12:57:45.923Z,100490.44
2023-01-24T13:02:35.075Z,100492.84
2023-01-24T13:07:24.330Z,100489.47
2023-01-24T13:11:46.892Z,100491.50
2023-01-24T13:16:14.795Z,100497.84
2023-01-24T13:20:41.981Z,100493.31
2023-01-24T13:25:12.158Z,100500.97
2023-01-24T13:29:33.602Z,100495.59
2023-01-24T13:33:50.628Z,100496.19
2023-01-24T13:38:23.160Z,100504.31
2023-01-24T13:42:38.144Z,100494.03
2023-01-24T13:47:17.830Z,100494.03
2023-01-24T13:51:35.746Z,100501.13
2023-01-24T13:56:01.953Z,100494.44
2023-01-24T14:00:13.454Z,100489.69
2023-01-24T14:04:43.930Z,100505.63
2023-01-24T14:09:01.975Z,100499.44
2023-01-24T14:13:44.742Z,100506.81
2023-01-24T14:17:56.793Z,100500.13
2023-01-24T14:22:11.275Z,100496.22
2023-01-24T14:26:28.019Z,100505.63
2023-01-24T14:30:43.639Z,100511.69
2023-01-24T14:35:13.165Z,100505.16
2023-01-24T14:39:26.783Z,100503.03
2023-01-24T14:43:39.265Z,100502.91
2023-01-24T14:47:51.901Z,100500.69
2023-01-24T14:52:25.043Z,100508.19
2023-01-24T14:56:40.596Z,100510.03
2023-01-24T15:00:54.631Z,100513.63
2023-01-24T15:05:23.280Z,100513.06
2023-01-24T15:09:34.747Z,100517.25
2023-01-24T15:13:50.792Z,100515.59
2023-01-24T15:18:05.730Z,100519.13
2023-01-24T15:22:22.263Z,100525.75
2023-01-24T15:26:38.134Z,100519.03
2023-01-24T15:30:58.507Z,100524.19
2023-01-24T15:35:31.946Z,100526.91
2023-01-24T15:39:44.602Z,100529.47
2023-01-24T15:44:08.008Z,100534.75
2023-01-24T15:48:22.546Z,100536.44
2023-01-24T15:52:33.970Z,100537.41
2023-01-24T15:56:52.330Z,100534.91
2023-01-24T16:01:05.409Z,100538.38
2023-01-24T16:05:19.565Z,100540.91
2023-01-24T16:09:30.978Z,100540.03
2023-01-24T16:13:48.764Z,100542.88
2023-01-24T16:18:00.216Z,100534.47
2023-01-24T16:22:11.947Z,100537.03
2023-01-24T16:26:26.905Z,100534.03
2023-01-24T16:30:38.438Z,100541.44
2023-01-24T16:34:50.740Z,100538.78
2023-01-24T16:39:02.636Z,100535.25
2023-01-24T16:43:20.015Z,100542.53
2023-01-24T16:47:31.533Z,100545.59
2023-01-24T16:51:47.290Z,100553.25
2023-01-24T16:55:58.765Z,100549.28
2023-01-24T17:00:13.347Z,100561.16
2023-01-24T17:04:25.323Z,100559.09
2023-01-24T17:08:38.237Z,100565.56
2023-01-24T17:12:50.308Z,100572.06
2023-01-24T17:17:04.570Z,100571.72
2023-01-24T17:21:17.380Z,100575.97
2023-01-24T17:25:32.573Z,100586.31
2023-01-24T17:29:44.964Z,100577.38
2023-01-24T17:33:56.501Z,100588.44
2023-01-24T17:38:08.097Z,100584.97
2023-01-24T17:42:19.568Z,100594.38
2023-01-24T17:46:31.089Z,100591.41
2023-01-24T17:50:42.628Z,100584.97
2023-01-24T17:54:54.209Z,100587.63
2023-01-24T17:59:06.037Z,100591.28
2023-01-24T18:03:17.484Z,100585.09
2023-01-24T18:07:29.016Z,100590.38
2023-01-24T18:11:40.629Z,100593.97
2023-01-24T18:16:02.598Z,100598.75
2023-01-24T18:20:14.877Z,100585.31
2023-01-24T18:24:26.485Z,100592.09
2023-01-24T18:28:38.029Z,100583.63
2023-01-24T18:32:49.524Z,100584.59
2023-01-24T18:37:01.092Z,100582.59
2023-01-24T18:41:13.712Z,100582.91
2023-01-24T18:45:25.277Z,100582.03
2023-01-24T18:49:36.889Z,100582.06
2023-01-24T18:53:52.355Z,100578.38
2023-01-24T18:58:03.998Z,100574.31
2023-01-24T19:02:15.621Z,100579.56
2023-01-24T19:06:33.000Z,100581.09
2023-01-24T19:10:44.588Z,100576.75
2023-01-24T19:14:56.081Z,100586.25
2023-01-24T19:19:10.748Z,100590.38
2023-01-24T19:23:22.223Z,100584.59
2023-01-24T19:27:33.715Z,100592.22
2023-01-24T19:31:45.238Z,100579.44
2023-01-24T19:35:57.156Z,100579.56
2023-01-24T19:40:09.294Z,100587.38
2023-01-24T19:44:22.463Z,100582.03
2023-01-24T19:48:34.173Z,100586.50
2023-01-24T19:52:45.720Z,100585.34
2023-01-24T19:56:57.338Z,100585.16
2023-01-24T20:01:10.169Z,100585.44
2023-01-24T20:05:21.762Z,100585.44
2023-01-24T20:09:33.452Z,100584.72
2023-01-24T20:13:45.414Z,100592.94
2023-01-24T20:17:57.682Z,100584.00
2023-01-24T20:22:09.400Z,100595.84
2023-01-24T20:26:21.805Z,100592.47
2023-01-24T20:30:33.420Z,100596.25
2023-01-24T20:34:46.731Z,100585.44
2023-01-24T20:38:58.240Z,100584.84
2023-01-24T20:43:09.797Z,100595.25
2023-01-24T20:47:21.304Z,100602.31
2023-01-24T20:51:32.962Z,100603.84
2023-01-24T20:55:46.653Z,100600.66
2023-01-24T20:59:58.148Z,100598.00
2023-01-24T21:04:10.074Z,100591.91
2023-01-24T21:08:21.551Z,100604.75
2023-01-24T21:12:33.526Z,100600.28
2023-01-24T21:16:45.120Z,100604.84
2023-01-24T21:20:57.409Z,100602.03
2023-01-24T21:25:09.696Z,100602.97
2023-01-24T21:29:21.434Z,100603.84
2023-01-24T21:33:33.291Z,100590.00
2023-01-24T21:37:44.835Z,100581.47
2023-01-24T21:41:56.628Z,100577.25
2023-01-24T21:46:08.395Z,100573.97
2023-01-24T21:50:20.003Z,100576.91
2023-01-24T21:54:36.738Z,100579.44
2023-01-24T21:58:48.231Z,100581.72
2023-01-24T22:03:18.333Z,100577.53
2023-01-24T22:07:31.612Z,100568.34
2023-01-24T22:11:44.120Z,100566.25
2023-01-24T22:15:55.867Z,100564.75
2023-01-24T22:20:18.756Z,100561.22
2023-01-24T22:24:42.601Z,100564.19
2023-01-24T22:28:55.324Z,100563.59
